sensor_id;sensor_type;location;lat;lon;timestamp;pressure;altitude;pressure_sealevel;temperature;humidity
36386;BME280;24125;47.482;8.770;2022-10-16T00:00:13;96234.38;;;16.82;73.19
36386;BME280;24125;47.482;8.770;2022-10-16T00:02:46;96234.38;;;16.82;72.52
36386;BME280;24125;47.482;8.770;2022-10-16T00:05:18;96227.41;;;16.81;72.80
36386;BME280;24125;47.482;8.770;2022-10-16T00:07:53;96235.13;;;16.82;72.96
36386;BME280;24125;47.482;8.770;2022-10-16T00:10:26;96234.31;;;16.78;72.99
36386;BME280;24125;47.482;8.770;2022-10-16T00:12:59;96227.38;;;16.77;72.84
36386;BME280;24125;47.482;8.770;2022-10-16T00:15:33;96218.91;;;16.79;73.01
36386;BME280;24125;47.482;8.770;2022-10-16T00:18:07;96222.38;;;16.79;73.22
36386;BME280;24125;47.482;8.770;2022-10-16T00:20:40;96222.81;;;16.81;72.86
36386;BME280;24125;47.482;8.770;2022-10-16T00:23:14;96222.09;;;16.84;72.98
36386;BME280;24125;47.482;8.770;2022-10-16T00:25:54;96212.06;;;16.85;72.91
36386;BME280;24125;47.482;8.770;2022-10-16T00:28:28;96208.59;;;16.84;72.70
36386;BME280;24125;47.482;8.770;2022-10-16T00:31:03;96222.91;;;16.88;72.95
36386;BME280;24125;47.482;8.770;2022-10-16T00:33:40;96218.28;;;16.89;72.96
36386;BME280;24125;47.482;8.770;2022-10-16T00:36:15;96219.47;;;16.91;72.79
36386;BME280;24125;47.482;8.770;2022-10-16T00:38:52;96217.97;;;16.94;73.04
36386;BME280;24125;47.482;8.770;2022-10-16T00:41:27;96213.72;;;16.93;73.10
36386;BME280;24125;47.482;8.770;2022-10-16T00:44:02;96223.00;;;16.95;72.56
36386;BME280;24125;47.482;8.770;2022-10-16T00:46:37;96226.47;;;16.96;72.94
36386;BME280;24125;47.482;8.770;2022-10-16T00:49:13;96231.50;;;16.97;72.61
36386;BME280;24125;47.482;8.770;2022-10-16T00:51:49;96238.44;;;16.98;72.76
36386;BME280;24125;47.482;8.770;2022-10-16T00:54:26;96236.94;;;17.01;73.05
36386;BME280;24125;47.482;8.770;2022-10-16T00:57:01;96242.00;;;17.03;72.51
36386;BME280;24125;47.482;8.770;2022-10-16T00:59:37;96237.75;;;17.05;72.65
36386;BME280;24125;47.482;8.770;2022-10-16T01:02:14;96239.31;;;17.06;72.75
36386;BME280;24125;47.482;8.770;2022-10-16T01:04:50;96246.28;;;17.07;72.39
36386;BME280;24125;47.482;8.770;2022-10-16T01:07:36;96250.53;;;17.08;72.53
36386;BME280;24125;47.482;8.770;2022-10-16T01:10:21;96242.44;;;17.08;72.68
36386;BME280;24125;47.482;8.770;2022-10-16T01:12:59;96249.31;;;17.06;72.69
36386;BME280;24125;47.482;8.770;2022-10-16T01:15:37;96233.50;;;17.04;73.04
36386;BME280;24125;47.482;8.770;2022-10-16T01:18:14;96240.47;;;17.05;72.74
36386;BME280;24125;47.482;8.770;2022-10-16T01:20:51;96235.06;;;17.05;73.25
36386;BME280;24125;47.482;8.770;2022-10-16T01:23:36;96222.72;;;17.04;73.11
36386;BME280;24125;47.482;8.770;2022-10-16T01:26:24;96233.94;;;17.06;73.16
36386;BME280;24125;47.482;8.770;2022-10-16T01:29:06;96250.09;;;17.06;73.17
36386;BME280;24125;47.482;8.770;2022-10-16T01:31:41;96230.88;;;17.08;73.08
36386;BME280;24125;47.482;8.770;2022-10-16T01:34:21;96252.88;;;17.10;72.99
36386;BME280;24125;47.482;8.770;2022-10-16T01:37:02;96232.06;;;17.10;72.96
36386;BME280;24125;47.482;8.770;2022-10-16T01:39:40;96238.25;;;17.11;72.92
36386;BME280;24125;47.482;8.770;2022-10-16T01:42:18;96250.97;;;17.14;72.86
36386;BME280;24125;47.482;8.770;2022-10-16T01:44:54;96246.72;;;17.13;73.08
36386;BME280;24125;47.482;8.770;2022-10-16T01:47:30;96240.19;;;17.14;73.20
36386;BME280;24125;47.482;8.770;2022-10-16T01:50:04;96247.13;;;17.15;72.63
36386;BME280;24125;47.482;8.770;2022-10-16T01:52:43;96252.19;;;17.16;72.94
36386;BME280;24125;47.482;8.770;2022-10-16T01:55:20;96252.97;;;17.17;72.85
36386;BME280;24125;47.482;8.770;2022-10-16T01:57:55;96257.16;;;17.14;72.82
36386;BME280;24125;47.482;8.770;2022-10-16T02:00:31;96263.31;;;17.15;72.81
36386;BME280;24125;47.482;8.770;2022-10-16T02:03:05;96248.28;;;17.14;72.96
36386;BME280;24125;47.482;8.770;2022-10-16T02:05:41;96245.59;;;17.14;72.95
36386;BME280;24125;47.482;8.770;2022-10-16T02:08:17;96231.72;;;17.12;73.31
36386;BME280;24125;47.482;8.770;2022-10-16T02:10:50;96238.59;;;17.09;73.36
36386;BME280;24125;47.482;8.770;2022-10-16T02:13:27;96247.47;;;17.10;73.51
36386;BME280;24125;47.482;8.770;2022-10-16T02:16:05;96248.63;;;17.09;73.24
36386;BME280;24125;47.482;8.770;2022-10-16T02:18:38;96249.38;;;17.09;73.29
36386;BME280;24125;47.482;8.770;2022-10-16T02:21:15;96240.88;;;17.07;72.87
36386;BME280;24125;47.482;8.770;2022-10-16T02:23:54;96258.97;;;17.07;72.89
36386;BME280;24125;47.482;8.770;2022-10-16T02:26:35;96264.72;;;17.05;72.96
36386;BME280;24125;47.482;8.770;2022-10-16T02:29:11;96267.03;;;17.03;72.95
36386;BME280;24125;47.482;8.770;2022-10-16T02:31:50;96269.31;;;17.01;72.92
36386;BME280;24125;47.482;8.770;2022-10-16T02:34:25;96268.84;;;16.95;72.64
36386;BME280;24125;47.482;8.770;2022-10-16T02:37:01;96266.09;;;16.92;72.94
36386;BME280;24125;47.482;8.770;2022-10-16T02:39:35;96263.34;;;16.88;72.72
36386;BME280;24125;47.482;8.770;2022-10-16T02:42:09;96259.47;;;16.86;72.27
36386;BME280;24125;47.482;8.770;2022-10-16T02:44:42;96252.81;;;16.80;72.47
36386;BME280;24125;47.482;8.770;2022-10-16T02:47:17;96255.09;;;16.78;72.83
36386;BME280;24125;47.482;8.770;2022-10-16T02:49:50;96242.72;;;16.73;72.20
36386;BME280;24125;47.482;8.770;2022-10-16T02:52:23;96248.03;;;16.70;72.43
36386;BME280;24125;47.482;8.770;2022-10-16T02:54:56;96241.84;;;16.66;72.71
36386;BME280;24125;47.482;8.770;2022-10-16T02:57:29;96228.28;;;16.62;72.82
36386;BME280;24125;47.482;8.770;2022-10-16T03:00:04;96229.00;;;16.59;72.98
36386;BME280;24125;47.482;8.770;2022-10-16T03:02:38;96235.09;;;16.56;73.06
36386;BME280;24125;47.482;8.770;2022-10-16T03:05:11;96248.50;;;16.52;73.18
36386;BME280;24125;47.482;8.770;2022-10-16T03:07:44;96250.03;;;16.50;73.15
36386;BME280;24125;47.482;8.770;2022-10-16T03:10:17;96249.19;;;16.46;73.14
36386;BME280;24125;47.482;8.770;2022-10-16T03:12:50;96251.88;;;16.46;73.16
36386;BME280;24125;47.482;8.770;2022-10-16T03:15:24;96257.59;;;16.41;73.47
36386;BME280;24125;47.482;8.770;2022-10-16T03:18:00;96240.63;;;16.40;73.42
36386;BME280;24125;47.482;8.770;2022-10-16T03:20:33;96238.63;;;16.34;73.82
36386;BME280;24125;47.482;8.770;2022-10-16T03:23:06;96236.63;;;16.31;73.80
36386;BME280;24125;47.482;8.770;2022-10-16T03:25:39;96241.59;;;16.29;73.86
36386;BME280;24125;47.482;8.770;2022-10-16T03:28:12;96249.63;;;16.25;73.71
36386;BME280;24125;47.482;8.770;2022-10-16T03:30:45;96251.91;;;16.23;73.63
36386;BME280;24125;47.482;8.770;2022-10-16T03:33:19;96269.19;;;16.22;73.57
36386;BME280;24125;47.482;8.770;2022-10-16T03:35:53;96269.13;;;16.18;73.60
36386;BME280;24125;47.482;8.770;2022-10-16T03:38:26;96265.59;;;16.14;73.31
36386;BME280;24125;47.482;8.770;2022-10-16T03:40:59;96270.91;;;16.11;73.33
36386;BME280;24125;47.482;8.770;2022-10-16T03:43:32;96269.31;;;16.06;73.63
36386;BME280;24125;47.482;8.770;2022-10-16T03:46:04;96266.13;;;16.01;73.64
36386;BME280;24125;47.482;8.770;2022-10-16T03:48:40;96267.19;;;15.96;73.75
36386;BME280;24125;47.482;8.770;2022-10-16T03:51:13;96277.50;;;15.91;73.43
36386;BME280;24125;47.482;8.770;2022-10-16T03:53:45;96290.44;;;15.85;73.69
36386;BME280;24125;47.482;8.770;2022-10-16T03:56:18;96294.22;;;15.80;73.46
36386;BME280;24125;47.482;8.770;2022-10-16T03:58:51;96287.97;;;15.76;73.77
36386;BME280;24125;47.482;8.770;2022-10-16T04:01:24;96282.53;;;15.73;73.85
36386;BME280;24125;47.482;8.770;2022-10-16T04:03:58;96278.63;;;15.70;74.05
36386;BME280;24125;47.482;8.770;2022-10-16T04:06:31;96272.78;;;15.65;74.09
36386;BME280;24125;47.482;8.770;2022-10-16T04:09:04;96272.34;;;15.63;74.13
36386;BME280;24125;47.482;8.770;2022-10-16T04:11:37;96269.56;;;15.59;74.55
36386;BME280;24125;47.482;8.770;2022-10-16T04:14:10;96257.25;;;15.58;74.65
36386;BME280;24125;47.482;8.770;2022-10-16T04:16:43;96265.31;;;15.58;74.77
36386;BME280;24125;47.482;8.770;2022-10-16T04:19:17;96272.59;;;15.58;74.66
36386;BME280;24125;47.482;8.770;2022-10-16T04:21:50;96279.56;;;15.59;74.84
36386;BME280;24125;47.482;8.770;2022-10-16T04:24:23;96282.59;;;15.57;74.99
36386;BME280;24125;47.482;8.770;2022-10-16T04:26:56;96281.47;;;15.58;74.79
36386;BME280;24125;47.482;8.770;2022-10-16T04:29:28;96283.81;;;15.60;75.17
36386;BME280;24125;47.482;8.770;2022-10-16T04:32:01;96279.97;;;15.61;75.27
36386;BME280;24125;47.482;8.770;2022-10-16T04:34:36;96285.44;;;15.64;75.35
36386;BME280;24125;47.482;8.770;2022-10-16T04:37:09;96278.56;;;15.67;75.31
36386;BME280;24125;47.482;8.770;2022-10-16T04:39:42;96289.41;;;15.70;75.20
36386;BME280;24125;47.482;8.770;2022-10-16T04:42:16;96292.94;;;15.74;75.30
36386;BME280;24125;47.482;8.770;2022-10-16T04:44:49;96293.00;;;15.78;75.23
36386;BME280;24125;47.482;8.770;2022-10-16T04:47:22;96289.63;;;15.81;75.33
36386;BME280;24125;47.482;8.770;2022-10-16T04:49:57;96294.34;;;15.88;74.86
36386;BME280;24125;47.482;8.770;2022-10-16T04:52:31;96296.34;;;15.91;75.01
36386;BME280;24125;47.482;8.770;2022-10-16T04:55:11;96304.81;;;15.93;74.95
36386;BME280;24125;47.482;8.770;2022-10-16T04:57:44;96301.41;;;15.96;74.95
36386;BME280;24125;47.482;8.770;2022-10-16T05:00:17;96314.19;;;15.99;74.72
36386;BME280;24125;47.482;8.770;2022-10-16T05:02:50;96309.19;;;16.01;74.56
36386;BME280;24125;47.482;8.770;2022-10-16T05:05:25;96320.41;;;16.03;74.60
36386;BME280;24125;47.482;8.770;2022-10-16T05:07:58;96312.31;;;16.03;74.40
36386;BME280;24125;47.482;8.770;2022-10-16T05:10:31;96319.25;;;16.04;74.03
36386;BME280;24125;47.482;8.770;2022-10-16T05:13:04;96318.06;;;16.01;73.97
36386;BME280;24125;47.482;8.770;2022-10-16T05:15:37;96313.41;;;15.98;73.63
36386;BME280;24125;47.482;8.770;2022-10-16T05:18:10;96311.41;;;15.95;73.47
36386;BME280;24125;47.482;8.770;2022-10-16T05:20:44;96314.03;;;15.92;73.31
36386;BME280;24125;47.482;8.770;2022-10-16T05:23:17;96321.63;;;15.86;73.30
36386;BME280;24125;47.482;8.770;2022-10-16T05:25:54;96316.53;;;15.81;73.58
36386;BME280;24125;47.482;8.770;2022-10-16T05:28:31;96320.22;;;15.73;73.30
36386;BME280;24125;47.482;8.770;2022-10-16T05:31:05;96317.00;;;15.67;73.78
36386;BME280;24125;47.482;8.770;2022-10-16T05:33:38;96311.16;;;15.62;73.91
36386;BME280;24125;47.482;8.770;2022-10-16T05:36:13;96306.47;;;15.59;74.12
36386;BME280;24125;47.482;8.770;2022-10-16T05:38:46;96312.97;;;15.58;74.05
36386;BME280;24125;47.482;8.770;2022-10-16T05:41:25;96309.88;;;15.56;74.16
36386;BME280;24125;47.482;8.770;2022-10-16T05:43:58;96306.81;;;15.57;74.29
36386;BME280;24125;47.482;8.770;2022-10-16T05:46:31;96314.13;;;15.57;74.29
36386;BME280;24125;47.482;8.770;2022-10-16T05:49:04;96316.44;;;15.58;74.61
36386;BME280;24125;47.482;8.770;2022-10-16T05:51:38;96318.34;;;15.58;74.54
36386;BME280;24125;47.482;8.770;2022-10-16T05:54:11;96327.63;;;15.60;74.37
36386;BME280;24125;47.482;8.770;2022-10-16T05:56:44;96327.72;;;15.64;74.40
36386;BME280;24125;47.482;8.770;2022-10-16T05:59:16;96328.50;;;15.64;74.62
36386;BME280;24125;47.482;8.770;2022-10-16T06:01:49;96321.25;;;15.68;74.45
36386;BME280;24125;47.482;8.770;2022-10-16T06:04:22;96324.38;;;15.70;74.39
36386;BME280;24125;47.482;8.770;2022-10-16T06:06:59;96329.84;;;15.74;74.65
36386;BME280;24125;47.482;8.770;2022-10-16T06:09:33;96332.53;;;15.74;74.90
36386;BME280;24125;47.482;8.770;2022-10-16T06:12:05;96325.66;;;15.76;74.67
36386;BME280;24125;47.482;8.770;2022-10-16T06:14:38;96332.25;;;15.79;74.80
36386;BME280;24125;47.482;8.770;2022-10-16T06:17:11;96331.19;;;15.83;74.72
36386;BME280;24125;47.482;8.770;2022-10-16T06:19:44;96344.28;;;15.85;74.87
36386;BME280;24125;47.482;8.770;2022-10-16T06:22:19;96336.28;;;15.89;74.61
36386;BME280;24125;47.482;8.770;2022-10-16T06:24:51;96347.13;;;15.92;74.44
36386;BME280;24125;47.482;8.770;2022-10-16T06:27:24;96341.03;;;15.95;74.73
36386;BME280;24125;47.482;8.770;2022-10-16T06:29:57;96342.66;;;16.00;74.73
36386;BME280;24125;47.482;8.770;2022-10-16T06:32:30;96340.81;;;16.04;74.46
36386;BME280;24125;47.482;8.770;2022-10-16T06:35:04;96353.97;;;16.09;74.60
36386;BME280;24125;47.482;8.770;2022-10-16T06:37:38;96355.63;;;16.13;74.40
36386;BME280;24125;47.482;8.770;2022-10-16T06:40:11;96355.69;;;16.17;74.38
36386;BME280;24125;47.482;8.770;2022-10-16T06:42:46;96370.44;;;16.23;74.27
36386;BME280;24125;47.482;8.770;2022-10-16T06:45:18;96370.47;;;16.27;74.52
36386;BME280;24125;47.482;8.770;2022-10-16T06:47:51;96369.78;;;16.30;74.70
36386;BME280;24125;47.482;8.770;2022-10-16T06:50:24;96369.84;;;16.33;74.64
36386;BME280;24125;47.482;8.770;2022-10-16T06:52:58;96379.97;;;16.40;74.86
36386;BME280;24125;47.482;8.770;2022-10-16T06:55:32;96389.66;;;16.44;74.84
36386;BME280;24125;47.482;8.770;2022-10-16T06:58:04;96390.16;;;16.50;74.95
36386;BME280;24125;47.482;8.770;2022-10-16T07:00:38;96398.72;;;16.55;74.77
36386;BME280;24125;47.482;8.770;2022-10-16T07:03:10;96403.06;;;16.60;74.19
36386;BME280;24125;47.482;8.770;2022-10-16T07:05:43;96414.69;;;16.64;74.20
36386;BME280;24125;47.482;8.770;2022-10-16T07:08:18;96418.59;;;16.67;74.24
36386;BME280;24125;47.482;8.770;2022-10-16T07:10:58;96421.00;;;16.72;73.74
36386;BME280;24125;47.482;8.770;2022-10-16T07:13:33;96435.25;;;16.72;73.65
36386;BME280;24125;47.482;8.770;2022-10-16T07:16:07;96432.56;;;16.72;73.57
36386;BME280;24125;47.482;8.770;2022-10-16T07:18:42;96425.97;;;16.70;73.52
36386;BME280;24125;47.482;8.770;2022-10-16T07:21:19;96427.88;;;16.69;73.63
36386;BME280;24125;47.482;8.770;2022-10-16T07:23:55;96438.25;;;16.67;73.76
36386;BME280;24125;47.482;8.770;2022-10-16T07:26:30;96435.84;;;16.62;73.54
36386;BME280;24125;47.482;8.770;2022-10-16T07:29:03;96433.84;;;16.59;73.36
36386;BME280;24125;47.482;8.770;2022-10-16T07:31:36;96436.47;;;16.55;73.32
36386;BME280;24125;47.482;8.770;2022-10-16T07:34:10;96441.03;;;16.51;73.63
36386;BME280;24125;47.482;8.770;2022-10-16T07:36:44;96440.94;;;16.48;73.56
36386;BME280;24125;47.482;8.770;2022-10-16T07:39:19;96449.72;;;16.45;73.80
36386;BME280;24125;47.482;8.770;2022-10-16T07:41:52;96446.56;;;16.39;74.03
36386;BME280;24125;47.482;8.770;2022-10-16T07:44:24;96445.78;;;16.39;74.13
36386;BME280;24125;47.482;8.770;2022-10-16T07:46:57;96448.81;;;16.37;75.06
36386;BME280;24125;47.482;8.770;2022-10-16T07:49:30;96452.28;;;16.38;75.20
36386;BME280;24125;47.482;8.770;2022-10-16T07:52:03;96455.84;;;16.42;75.50
36386;BME280;24125;47.482;8.770;2022-10-16T07:54:38;96459.44;;;16.49;76.08
36386;BME280;24125;47.482;8.770;2022-10-16T07:57:12;96465.75;;;16.57;76.22
36386;BME280;24125;47.482;8.770;2022-10-16T07:59:50;96466.00;;;16.68;76.45
36386;BME280;24125;47.482;8.770;2022-10-16T08:02:23;96465.03;;;16.79;76.22
36386;BME280;24125;47.482;8.770;2022-10-16T08:04:56;96467.56;;;16.91;76.45
36386;BME280;24125;47.482;8.770;2022-10-16T08:07:29;96467.03;;;17.05;76.61
36386;BME280;24125;47.482;8.770;2022-10-16T08:10:05;96464.59;;;17.19;76.00
36386;BME280;24125;47.482;8.770;2022-10-16T08:12:38;96463.66;;;17.34;76.30
36386;BME280;24125;47.482;8.770;2022-10-16T08:15:11;96463.53;;;17.50;75.91
36386;BME280;24125;47.482;8.770;2022-10-16T08:17:44;96456.84;;;17.67;75.49
36386;BME280;24125;47.482;8.770;2022-10-16T08:20:17;96454.38;;;17.81;75.26
36386;BME280;24125;47.482;8.770;2022-10-16T08:22:50;96456.50;;;17.95;75.38
36386;BME280;24125;47.482;8.770;2022-10-16T08:25:25;96456.72;;;18.13;75.08
36386;BME280;24125;47.482;8.770;2022-10-16T08:27:58;96463.44;;;18.26;75.03
36386;BME280;24125;47.482;8.770;2022-10-16T08:30:31;96465.97;;;18.41;74.69
36386;BME280;24125;47.482;8.770;2022-10-16T08:33:07;96464.19;;;18.56;74.01
36386;BME280;24125;47.482;8.770;2022-10-16T08:35:40;96466.72;;;18.72;74.32
36386;BME280;24125;47.482;8.770;2022-10-16T08:38:14;96476.53;;;18.87;73.82
36386;BME280;24125;47.482;8.770;2022-10-16T08:40:48;96490.59;;;19.03;73.94
36386;BME280;24125;47.482;8.770;2022-10-16T08:43:36;96490.75;;;19.17;72.74
36386;BME280;24125;47.482;8.770;2022-10-16T08:46:21;96495.13;;;19.33;72.72
36386;BME280;24125;47.482;8.770;2022-10-16T08:49:00;96499.06;;;19.42;71.96
36386;BME280;24125;47.482;8.770;2022-10-16T08:51:36;96504.63;;;19.53;72.23
36386;BME280;24125;47.482;8.770;2022-10-16T08:54:22;96504.31;;;19.65;71.73
36386;BME280;24125;47.482;8.770;2022-10-16T08:57:07;96505.13;;;19.73;71.16
36386;BME280;24125;47.482;8.770;2022-10-16T08:59:41;96509.06;;;19.79;71.70
36386;BME280;24125;47.482;8.770;2022-10-16T09:02:23;96510.31;;;19.88;71.09
36386;BME280;24125;47.482;8.770;2022-10-16T09:05:20;96506.06;;;19.98;70.76
36386;BME280;24125;47.482;8.770;2022-10-16T09:08:02;96509.63;;;20.06;70.20
36386;BME280;24125;47.482;8.770;2022-10-16T09:10:50;96515.88;;;20.13;69.98
36386;BME280;24125;47.482;8.770;2022-10-16T09:13:34;96503.13;;;20.21;69.67
36386;BME280;24125;47.482;8.770;2022-10-16T09:16:15;96506.28;;;20.30;69.48
36386;BME280;24125;47.482;8.770;2022-10-16T09:18:56;96505.56;;;20.37;69.53
36386;BME280;24125;47.482;8.770;2022-10-16T09:21:35;96502.09;;;20.43;69.15
36386;BME280;24125;47.482;8.770;2022-10-16T09:24:12;96507.16;;;20.52;68.98
36386;BME280;24125;47.482;8.770;2022-10-16T09:26:46;96517.66;;;20.57;69.14
36386;BME280;24125;47.482;8.770;2022-10-16T09:29:21;96519.25;;;20.65;68.56
36386;BME280;24125;47.482;8.770;2022-10-16T09:32:08;96520.03;;;20.73;69.31
36386;BME280;24125;47.482;8.770;2022-10-16T09:34:45;96530.91;;;20.80;68.93
36386;BME280;24125;47.482;8.770;2022-10-16T09:37:21;96520.09;;;20.87;69.04
36386;BME280;24125;47.482;8.770;2022-10-16T09:39:55;96521.66;;;20.95;69.21
36386;BME280;24125;47.482;8.770;2022-10-16T09:42:34;96519.34;;;21.04;68.68
36386;BME280;24125;47.482;8.770;2022-10-16T09:45:23;96520.53;;;21.14;68.33
36386;BME280;24125;47.482;8.770;2022-10-16T09:47:56;96524.09;;;21.18;68.44
36386;BME280;24125;47.482;8.770;2022-10-16T09:50:29;96524.47;;;21.23;68.34
36386;BME280;24125;47.482;8.770;2022-10-16T09:53:04;96520.97;;;21.30;67.97
36386;BME280;24125;47.482;8.770;2022-10-16T09:55:48;96526.81;;;21.39;68.42
36386;BME280;24125;47.482;8.770;2022-10-16T09:58:22;96506.66;;;21.43;68.70
36386;BME280;24125;47.482;8.770;2022-10-16T10:00:57;96517.53;;;21.51;68.25
36386;BME280;24125;47.482;8.770;2022-10-16T10:03:36;96512.47;;;21.60;67.81
36386;BME280;24125;47.482;8.770;2022-10-16T10:06:23;96517.13;;;21.66;67.76
36386;BME280;24125;47.482;8.770;2022-10-16T10:09:04;96515.94;;;21.71;68.05
36386;BME280;24125;47.482;8.770;2022-10-16T10:11:44;96511.31;;;21.78;67.35
36386;BME280;24125;47.482;8.770;2022-10-16T10:14:23;96517.91;;;21.84;66.90
36386;BME280;24125;47.482;8.770;2022-10-16T10:17:13;96516.34;;;21.91;66.74
36386;BME280;24125;47.482;8.770;2022-10-16T10:19:50;96512.84;;;21.97;66.48
36386;BME280;24125;47.482;8.770;2022-10-16T10:22:26;96517.13;;;22.05;66.69
36386;BME280;24125;47.482;8.770;2022-10-16T10:25:18;96505.06;;;22.13;66.93
36386;BME280;24125;47.482;8.770;2022-10-16T10:28:22;96508.56;;;22.21;66.17
36386;BME280;24125;47.482;8.770;2022-10-16T10:31:03;96500.75;;;22.27;65.91
36386;BME280;24125;47.482;8.770;2022-10-16T10:33:46;96499.56;;;22.35;65.60
36386;BME280;24125;47.482;8.770;2022-10-16T10:36:27;96497.97;;;22.41;65.40
36386;BME280;24125;47.482;8.770;2022-10-16T10:39:06;96496.03;;;22.45;65.50
36386;BME280;24125;47.482;8.770;2022-10-16T10:41:58;96500.28;;;22.53;65.78
36386;BME280;24125;47.482;8.770;2022-10-16T10:44:41;96491.69;;;22.58;65.81
36386;BME280;24125;47.482;8.770;2022-10-16T10:47:30;96494.41;;;22.65;65.75
36386;BME280;24125;47.482;8.770;2022-10-16T10:50:14;96495.94;;;22.70;65.66
36386;BME280;24125;47.482;8.770;2022-10-16T10:52:58;96502.94;;;22.74;65.08
36386;BME280;24125;47.482;8.770;2022-10-16T10:55:37;96502.16;;;22.77;65.61
36386;BME280;24125;47.482;8.770;2022-10-16T10:58:26;96494.75;;;22.81;65.18
36386;BME280;24125;47.482;8.770;2022-10-16T11:01:08;96493.59;;;22.82;65.65
36386;BME280;24125;47.482;8.770;2022-10-16T11:04:01;96501.31;;;22.87;65.13
36386;BME280;24125;47.482;8.770;2022-10-16T11:06:43;96498.19;;;22.89;65.05
36386;BME280;24125;47.482;8.770;2022-10-16T11:09:24;96489.66;;;22.90;64.85
36386;BME280;24125;47.482;8.770;2022-10-16T11:12:01;96488.47;;;22.91;64.63
36386;BME280;24125;47.482;8.770;2022-10-16T11:14:38;96488.44;;;22.95;63.68
36386;BME280;24125;47.482;8.770;2022-10-16T11:17:17;96485.31;;;22.97;63.58
36386;BME280;24125;47.482;8.770;2022-10-16T11:19:55;96485.31;;;23.00;63.53
36386;BME280;24125;47.482;8.770;2022-10-16T11:22:35;96476.72;;;23.05;64.13
36386;BME280;24125;47.482;8.770;2022-10-16T11:25:13;96472.38;;;23.11;64.34
36386;BME280;24125;47.482;8.770;2022-10-16T11:27:50;96467.66;;;23.19;64.31
36386;BME280;24125;47.482;8.770;2022-10-16T11:30:28;96464.09;;;23.29;63.52
36386;BME280;24125;47.482;8.770;2022-10-16T11:33:19;96464.78;;;23.40;62.69
36386;BME280;24125;47.482;8.770;2022-10-16T11:35:59;96447.22;;;23.48;62.58
36386;BME280;24125;47.482;8.770;2022-10-16T11:38:39;96454.94;;;23.60;62.04
36386;BME280;24125;47.482;8.770;2022-10-16T11:41:19;96457.97;;;23.66;62.28
36386;BME280;24125;47.482;8.770;2022-10-16T11:44:12;96455.59;;;23.72;62.74
36386;BME280;24125;47.482;8.770;2022-10-16T11:46:52;96452.84;;;23.75;62.19
36386;BME280;24125;47.482;8.770;2022-10-16T11:49:53;96457.50;;;23.78;62.31
36386;BME280;24125;47.482;8.770;2022-10-16T11:52:35;96459.78;;;23.83;62.01
36386;BME280;24125;47.482;8.770;2022-10-16T11:55:15;96458.19;;;23.86;62.18
36386;BME280;24125;47.482;8.770;2022-10-16T11:57:51;96456.59;;;23.88;62.11
36386;BME280;24125;47.482;8.770;2022-10-16T12:00:28;96458.13;;;23.93;62.09
36386;BME280;24125;47.482;8.770;2022-10-16T12:03:11;96457.28;;;23.96;61.74
36386;BME280;24125;47.482;8.770;2022-10-16T12:05:58;96454.53;;;23.99;61.76
36386;BME280;24125;47.482;8.770;2022-10-16T12:08:35;96459.59;;;24.01;61.57
36386;BME280;24125;47.482;8.770;2022-10-16T12:11:23;96453.69;;;24.06;62.09
36386;BME280;24125;47.482;8.770;2022-10-16T12:14:16;96451.72;;;24.10;61.40
36386;BME280;24125;47.482;8.770;2022-10-16T12:16:52;96446.63;;;24.12;61.85
36386;BME280;24125;47.482;8.770;2022-10-16T12:19:26;96443.06;;;24.15;61.51
36386;BME280;24125;47.482;8.770;2022-10-16T12:22:02;96442.63;;;24.20;61.63
36386;BME280;24125;47.482;8.770;2022-10-16T12:24:36;96439.09;;;24.23;61.65
36386;BME280;24125;47.482;8.770;2022-10-16T12:27:24;96436.28;;;24.30;61.45
36386;BME280;24125;47.482;8.770;2022-10-16T12:30:00;96433.53;;;24.34;61.59
36386;BME280;24125;47.482;8.770;2022-10-16T12:32:36;96427.59;;;24.39;61.56
36386;BME280;24125;47.482;8.770;2022-10-16T12:35:21;96422.47;;;24.44;61.16
36386;BME280;24125;47.482;8.770;2022-10-16T12:38:05;96420.06;;;24.50;60.76
36386;BME280;24125;47.482;8.770;2022-10-16T12:40:39;96423.16;;;24.52;60.77
36386;BME280;24125;47.482;8.770;2022-10-16T12:43:26;96421.50;;;24.58;60.31
36386;BME280;24125;47.482;8.770;2022-10-16T12:46:03;96421.88;;;24.60;60.10
36386;BME280;24125;47.482;8.770;2022-10-16T12:48:37;96416.03;;;24.62;60.13
36386;BME280;24125;47.482;8.770;2022-10-16T12:51:35;96413.22;;;24.65;59.89
36386;BME280;24125;47.482;8.770;2022-10-16T12:54:13;96405.41;;;24.67;59.28
36386;BME280;24125;47.482;8.770;2022-10-16T12:56:57;96409.28;;;24.70;59.51
36386;BME280;24125;47.482;8.770;2022-10-16T12:59:43;96413.56;;;24.71;59.54
36386;BME280;24125;47.482;8.770;2022-10-16T13:02:48;96419.38;;;24.73;59.60
36386;BME280;24125;47.482;8.770;2022-10-16T13:05:30;96416.66;;;24.73;58.97
36386;BME280;24125;47.482;8.770;2022-10-16T13:08:23;96415.03;;;24.75;58.93
36386;BME280;24125;47.482;8.770;2022-10-16T13:11:05;96416.97;;;24.78;59.03
36386;BME280;24125;47.482;8.770;2022-10-16T13:13:57;96412.63;;;24.81;59.14
36386;BME280;24125;47.482;8.770;2022-10-16T13:16:44;96415.31;;;24.85;58.88
36386;BME280;24125;47.482;8.770;2022-10-16T13:19:28;96409.03;;;24.88;59.25
36386;BME280;24125;47.482;8.770;2022-10-16T13:22:10;96411.72;;;24.91;59.14
36386;BME280;24125;47.482;8.770;2022-10-16T13:24:56;96428.06;;;24.95;58.35
36386;BME280;24125;47.482;8.770;2022-10-16T13:27:38;96422.19;;;24.96;58.30
36386;BME280;24125;47.482;8.770;2022-10-16T13:30:16;96425.28;;;24.98;57.88
36386;BME280;24125;47.482;8.770;2022-10-16T13:32:58;96426.06;;;24.99;57.64
36386;BME280;24125;47.482;8.770;2022-10-16T13:35:34;96431.53;;;24.99;57.93
36386;BME280;24125;47.482;8.770;2022-10-16T13:38:12;96431.09;;;25.00;57.01
36386;BME280;24125;47.482;8.770;2022-10-16T13:40:51;96430.75;;;24.98;57.45
36386;BME280;24125;47.482;8.770;2022-10-16T13:43:27;96430.75;;;24.98;57.80
36386;BME280;24125;47.482;8.770;2022-10-16T13:46:03;96424.16;;;24.96;57.52
36386;BME280;24125;47.482;8.770;2022-10-16T13:48:39;96429.63;;;24.96;57.66
36386;BME280;24125;47.482;8.770;2022-10-16T13:51:15;96428.47;;;24.93;57.95